METAR Data
IDs: Format: Raw Decoded Include TAF

Data at: 2106 UTC 24 Mar 2019

KIAH 242053Z 16010KT 10SM SCT033 BKN060 BKN250 27/19 A3005 RMK AO2 SLP175 T02670189 56020
KIAH 241953Z 15011KT 10SM SCT029 BKN040 BKN060 BKN250 26/19 A3007 RMK AO2 SLP181 T02560189
KIAH 241853Z 17009KT 10SM SCT026 BKN038 BKN060 26/19 A3009 RMK AO2 SLP188 T02560189
KIAH 241753Z VRB06KT 10SM SCT023 BKN037 OVC055 24/19 A3011 RMK AO2 SLP195 T02390189 10244 20161 58007
KIAH 241653Z VRB06KT 10SM FEW017 SCT025 BKN036 24/19 A3013 RMK AO2 SLP201 T02390189
KIAH 241611Z 17006KT 10SM SCT017 BKN025 BKN036 23/19 A3014 RMK AO2 T02280189
KIAH 241553Z 18005KT 10SM SCT014 BKN023 BKN036 22/19 A3014 RMK AO2 SLP206 T02170189
KIAH 241519Z 18005KT 10SM BKN014 BKN022 OVC038 21/19 A3014 RMK AO2 T02110189
KIAH 241453Z 19006KT 10SM FEW012 BKN022 OVC038 21/18 A3013 RMK AO2 SLP202 T02110183 53010
KIAH 241441Z 18007KT 10SM FEW012 BKN022 BKN038 21/19 A3013 RMK AO2 T02110189
KIAH 241353Z 16008KT 6SM BR FEW024 SCT040 SCT060 19/18 A3011 RMK AO2 SLP196 T01890183
KIAH 241253Z 15007KT 4SM BR SCT043 BKN065 17/17 A3011 RMK AO2 SLP195 T01670167
KIAH 241153Z 13003KT 5SM BR FEW028 BKN065 16/16 A3010 RMK AO2 SLP192 T01610161 10161 20139 53003
KIAH 241053Z 12004KT 5SM BR FEW023 OVC065 15/15 A3010 RMK AO2 SLP191 BINOVC T01500150
KIAH 240953Z 11003KT 7SM FEW032 BKN065 BKN250 14/14 A3009 RMK AO2 SLP189 T01440144
KIAH 240853Z 00000KT 7SM MIFG FEW065 SCT250 14/14 A3009 RMK AO2 SLP189 T01390139 56007
KIAH 240753Z 11004KT 10SM MIFG SCT250 15/15 A3010 RMK AO2 SLP191 T01500150
KIAH 240653Z 10003KT 10SM FEW032 FEW080 BKN250 15/15 A3011 RMK AO2 SLP194 T01500150
KIAH 240553Z 00000KT 10SM FEW038 FEW080 BKN250 16/16 A3011 RMK AO2 SLP197 T01610156 10206 20156 402330128 50001
KIAH 240453Z 00000KT 10SM FEW038 BKN250 16/16 A3013 RMK AO2 SLP201 T01560156
KIAH 240353Z 12003KT 10SM SCT250 16/15 A3012 RMK AO2 SLP199 T01610150
KIAH 240253Z 13008KT 10SM SCT250 18/16 A3011 RMK AO2 SLP195 T01780156 53001
KIAH 240153Z 15008KT 10SM FEW028 FEW080 SCT250 18/16 A3011 RMK AO2 SLP194 T01830156
KIAH 240053Z 13011KT 10SM FEW027 SCT040 SCT085 BKN250 19/16 A3011 RMK AO2 SLP194 T01940156
KIAH 232353Z 14012KT 10SM FEW027 SCT040 BKN085 BKN250 21/16 A3011 RMK AO2 SLP194 T02060156 10233 20206 55000
KIAH 232253Z 13015KT 10SM SCT033 BKN085 BKN250 22/16 A3010 RMK AO2 SLP192 T02170156
KIAH 232153Z 13016KT 10SM SCT035 BKN080 BKN250 22/16 A3010 RMK AO2 SLP192 T02220156
KIAH 232053Z 13015KT 10SM SCT035 BKN070 BKN250 22/16 A3011 RMK AO2 SLP194 T02170156 56015
KIAH 231953Z 13015KT 10SM SCT032 BKN070 OVC250 22/16 A3012 RMK AO2 SLP199 T02170156
KIAH 231853Z 14016KT 10SM SCT032 BKN075 BKN100 OVC250 22/15 A3012 RMK AO2 SLP201 T02220150
KIAH 231753Z 16016KT 10SM SCT033 SCT075 BKN100 BKN250 22/15 A3015 RMK AO2 SLP209 T02220150 10228 20128 58005
KIAH 231653Z 14009G16KT 10SM SCT032 SCT075 BKN100 BKN250 22/16 A3017 RMK AO2 SLP216 T02220156
KIAH 231553Z 14012KT 10SM FEW075 BKN090 BKN160 BKN250 22/16 A3016 RMK AO2 SLP213 T02220156
KIAH 231519Z 13011KT 10SM SCT075 BKN090 BKN250 21/16 A3016 RMK AO2 T02060156
KIAH 231453Z 12007KT 10SM BKN075 BKN090 BKN250 19/16 A3016 RMK AO2 SLP214 T01890156 51023
KIAH 231353Z 12005KT 10SM BKN075 OVC250 17/16 A3014 RMK AO2 SLP207 T01670156
KIAH 231253Z 12004KT 8SM BKN070 OVC250 14/14 A3012 RMK AO2 SLP200 T01440144
KIAH 231153Z 00000KT 10SM SCT070 OVC250 13/13 A3010 RMK AO2 SLP191 T01280128 10167 20128 53007
KIAH 231053Z 14004KT 10SM BKN070 OVC250 13/13 A3008 RMK AO2 SLP185 T01280128
KIAH 230953Z 16004KT 10SM BKN070 OVC250 13/13 A3007 RMK AO2 SLP182 T01330133